Bandar Seri Begawan, Brunei
Current Conditions -  °F | °C
As of 1:00 AM on Friday 24 Oct 2014 (Local Time) from WBSB Reporting Station
Thunderstorm Thunderstorm  
Wind Chill: 77°   Ceiling: 14000
Heat Index: 78°   Visibility: 6mi
Dew Point: 77°   Wind: 1mph
Humidity: 100%   Direction: 30°NNE
Pressure: 29.88"   Gusts: NA
Location:  4.9431°N, 114.9425°E
Report Text: WBSB 231700Z 03001KT 9999 TS FEW004 FEW016CB BKN140 25/25 Q1012 NOSIG
Loading
Personal Weather Stations






























Interactive Weather Map
Tropical Storm Tracking
New forecast layout! Learn more

10-Day Weather Forecast

Advertisements
Track Severe Weather on mobile